Time;durP1;ratioP1;P1;durP2;ratioP2;P2;SDS_P1;SDS_P2;PMS_P1;PMS_P2;Temp;Humidity;BMP_temperature;BMP_pressure;BME280_temperature;BME280_humidity;BME280_pressure;Samples;Min_cycle;Max_cycle;Signal;HPM_P1;HPM_P2
2023/04/29 00:00:00;;;;;;;19.60;16.30;;;;;;;7.95;100.00;101265.88;5052332;28;20431;-45
2023/04/29 00:02:28;;;;;;;16.93;15.73;;;;;;;7.91;100.00;101273.38;5045917;28;20458;-48
2023/04/29 00:05:00;;;;;;;18.37;16.77;;;;;;;7.89;100.00;101269.19;5052299;28;20481;-45
2023/04/29 00:07:28;;;;;;;17.33;15.60;;;;;;;7.85;100.00;101270.53;5051676;28;20434;-45
2023/04/29 00:09:56;;;;;;;19.30;17.60;;;;;;;7.80;100.00;101273.69;5052198;28;20473;-45
2023/04/29 00:12:23;;;;;;;18.30;16.77;;;;;;;7.82;100.00;101274.38;5051383;28;20548;-48
2023/04/29 00:14:51;;;;;;;22.47;16.27;;;;;;;7.83;100.00;101273.34;5051686;28;20463;-45
2023/04/29 00:17:19;;;;;;;21.97;17.27;;;;;;;7.82;100.00;101277.03;5051052;28;20928;-44
2023/04/29 00:19:46;;;;;;;18.80;16.90;;;;;;;7.79;100.00;101278.16;5051696;28;20427;-46
2023/04/29 00:22:16;;;;;;;22.67;17.77;;;;;;;7.76;100.00;101264.41;5051051;28;20501;-44
2023/04/29 00:24:44;;;;;;;19.30;17.30;;;;;;;7.75;100.00;101271.53;5054309;28;20428;-46
2023/04/29 00:27:11;;;;;;;18.47;16.93;;;;;;;7.77;100.00;101271.34;5052009;28;20435;-44
2023/04/29 00:29:39;;;;;;;19.60;18.00;;;;;;;7.72;100.00;101279.00;5051873;28;20431;-49
2023/04/29 00:32:07;;;;;;;23.20;20.70;;;;;;;7.69;100.00;101276.66;5050459;28;20516;-46
2023/04/29 00:34:34;;;;;;;20.53;18.83;;;;;;;7.59;100.00;101270.69;5051376;28;20471;-46
2023/04/29 00:37:02;;;;;;;20.83;18.70;;;;;;;7.49;100.00;101267.38;5051335;28;20431;-50
2023/04/29 00:39:31;;;;;;;20.80;18.80;;;;;;;7.47;100.00;101277.28;5051234;28;20489;-44
2023/04/29 00:41:59;;;;;;;22.27;20.27;;;;;;;7.41;100.00;101276.13;5050176;28;20510;-49
2023/04/29 00:44:27;;;;;;;22.50;20.10;;;;;;;7.35;100.00;101281.28;5051336;28;20566;-47
2023/04/29 00:46:55;;;;;;;24.20;19.07;;;;;;;7.29;100.00;101279.28;5051383;28;20971;-45
2023/04/29 00:49:23;;;;;;;20.30;18.30;;;;;;;7.29;100.00;101287.22;5051252;28;20428;-48
2023/04/29 00:51:50;;;;;;;20.80;18.70;;;;;;;7.33;100.00;101293.84;5050068;28;20478;-47
2023/04/29 00:54:18;;;;;;;21.47;19.63;;;;;;;7.31;100.00;101294.03;5051594;28;20471;-47
2023/04/29 00:56:47;;;;;;;19.23;17.43;;;;;;;7.29;100.00;101289.88;5051429;28;20435;-47
2023/04/29 00:59:16;;;;;;;22.07;18.30;;;;;;;7.24;100.00;101296.50;5051033;28;20431;-45
2023/04/29 01:01:44;;;;;;;19.30;17.30;;;;;;;7.22;100.00;101289.69;5048066;28;20485;-47
2023/04/29 01:04:12;;;;;;;19.10;17.50;;;;;;;7.19;100.00;101298.81;5050900;28;20485;-48
2023/04/29 01:06:55;;;;;;;22.93;18.93;;;;;;;7.14;100.00;101298.44;5051113;28;20522;-50
2023/04/29 01:09:39;;;;;;;19.83;17.80;;;;;;;7.13;100.00;101299.44;5051031;28;20449;-45
2023/04/29 01:12:20;;;;;;;19.73;17.80;;;;;;;7.15;100.00;101291.31;5050393;28;20471;-48
2023/04/29 01:14:54;;;;;;;19.80;18.00;;;;;;;7.15;100.00;101291.31;5050583;28;20911;-48
2023/04/29 01:17:25;;;;;;;17.10;15.73;;;;;;;7.11;100.00;101296.09;5050805;28;20848;-45
2023/04/29 01:19:55;;;;;;;18.90;17.30;;;;;;;7.14;100.00;101300.25;5050954;28;20885;-48
2023/04/29 01:22:23;;;;;;;18.47;16.63;;;;;;;7.19;100.00;101297.97;5050485;28;20542;-45
2023/04/29 01:24:53;;;;;;;16.77;15.47;;;;;;;7.24;100.00;101298.31;5054235;28;20439;-50
2023/04/29 01:27:29;;;;;;;17.07;15.77;;;;;;;7.26;100.00;101301.63;5043149;28;20459;-46
2023/04/29 01:30:02;;;;;;;17.77;16.13;;;;;;;7.27;100.00;101302.47;5050562;28;20944;-44
2023/04/29 01:32:41;;;;;;;16.13;14.80;;;;;;;7.21;100.00;101301.28;5047956;28;20493;-46
2023/04/29 01:35:18;;;;;;;17.57;16.07;;;;;;;7.18;100.00;101298.94;5050776;28;20473;-47
2023/04/29 01:37:56;;;;;;;18.17;16.23;;;;;;;7.21;100.00;101301.28;5050804;28;20427;-49
2023/04/29 01:40:34;;;;;;;17.27;15.97;;;;;;;7.19;100.00;101295.31;5050900;28;20453;-48
2023/04/29 01:43:03;;;;;;;18.23;15.90;;;;;;;7.19;100.00;101303.28;5049803;28;20463;-47
2023/04/29 01:45:33;;;;;;;18.67;16.90;;;;;;;7.18;100.00;101305.09;5050536;28;20534;-45
2023/04/29 01:48:03;;;;;;;16.47;15.20;;;;;;;7.13;100.00;101309.22;5050678;28;20427;-48
2023/04/29 01:50:31;;;;;;;16.83;15.33;;;;;;;7.13;100.00;101312.72;5050864;28;20533;-46
2023/04/29 01:52:59;;;;;;;18.20;16.37;;;;;;;7.17;100.00;101321.16;5045258;28;21091;-47
2023/04/29 01:55:28;;;;;;;18.77;17.07;;;;;;;7.17;100.00;101316.69;5050251;28;20473;-47
2023/04/29 01:57:55;;;;;;;17.83;16.30;;;;;;;7.17;100.00;101321.16;5050631;28;20431;-47
2023/04/29 02:00:23;;;;;;;16.80;15.30;;;;;;;7.20;100.00;101320.84;5050339;28;20460;-48
2023/04/29 02:02:51;;;;;;;17.97;16.20;;;;;;;7.19;100.00;101317.38;5045408;28;20479;-47
2023/04/29 02:05:19;;;;;;;17.10;15.40;;;;;;;7.19;100.00;101321.84;5050538;28;21129;-45
2023/04/29 02:07:46;;;;;;;17.30;15.53;;;;;;;7.21;100.00;101320.69;5050554;28;20936;-47
2023/04/29 02:10:14;;;;;;;17.67;16.37;;;;;;;7.18;100.00;101323.66;5050335;28;20447;-45
2023/04/29 02:12:43;;;;;;;16.87;15.57;;;;;;;7.18;100.00;101321.00;5049697;28;20478;-49
2023/04/29 02:15:11;;;;;;;18.03;16.40;;;;;;;7.20;100.00;101332.28;5050633;28;20479;-47
2023/04/29 02:17:39;;;;;;;17.60;16.10;;;;;;;7.21;100.00;101327.81;5050147;28;20439;-46
2023/04/29 02:20:09;;;;;;;18.13;16.70;;;;;;;7.21;100.00;101327.81;5050559;28;20504;-45
2023/04/29 02:22:36;;;;;;;17.10;15.60;;;;;;;7.20;100.00;101320.84;5049927;28;20991;-45
2023/04/29 02:25:05;;;;;;;18.17;16.77;;;;;;;7.20;100.00;101320.84;5053684;28;20422;-45
2023/04/29 02:27:32;;;;;;;17.60;16.13;;;;;;;7.19;100.00;101333.28;5048564;28;20423;-45
2023/04/29 02:30:02;;;;;;;17.63;16.03;;;;;;;7.17;100.00;101326.47;5048563;28;20447;-46
2023/04/29 02:32:31;;;;;;;17.80;16.30;;;;;;;7.21;100.00;101336.59;5048442;28;20848;-45
2023/04/29 02:34:59;;;;;;;18.90;16.77;;;;;;;7.27;100.00;101342.25;5048717;28;20992;-44
2023/04/29 02:37:27;;;;;;;21.30;17.10;;;;;;;7.31;100.00;101335.63;5047040;28;20435;-47
2023/04/29 02:39:55;;;;;;;17.90;16.40;;;;;;;7.30;100.00;101347.22;5049571;28;20427;-50
2023/04/29 02:42:22;;;;;;;18.33;16.93;;;;;;;7.29;100.00;101342.94;5051480;28;20451;-44
2023/04/29 02:44:50;;;;;;;18.20;16.50;;;;;;;7.32;100.00;101348.72;5052404;28;20431;-46
2023/04/29 02:47:19;;;;;;;17.57;16.13;;;;;;;7.32;100.00;101340.78;5052191;28;20920;-44
2023/04/29 02:49:46;;;;;;;16.10;14.60;;;;;;;7.31;100.00;101346.25;5053457;28;20432;-45
2023/04/29 02:52:15;;;;;;;16.63;15.23;;;;;;;7.30;100.00;101341.94;5053130;28;20716;-45
2023/04/29 02:54:43;;;;;;;18.97;17.07;;;;;;;7.29;100.00;101350.91;5053241;28;20588;-49
2023/04/29 02:57:11;;;;;;;17.00;15.50;;;;;;;7.31;100.00;101343.59;5053456;28;20504;-48
2023/04/29 02:59:39;;;;;;;20.17;16.40;;;;;;;7.32;100.00;101345.28;5053384;28;20439;-46
2023/04/29 03:02:06;;;;;;;16.60;15.10;;;;;;;7.29;100.00;101346.41;5050917;28;20490;-48
2023/04/29 03:04:35;;;;;;;16.70;15.30;;;;;;;7.31;100.00;101347.09;5053189;28;20427;-45
2023/04/29 03:07:04;;;;;;;15.93;14.73;;;;;;;7.31;100.00;101360.34;5053510;28;20488;-47
2023/04/29 03:09:31;;;;;;;17.50;16.30;;;;;;;7.35;100.00;101352.91;5053417;28;20857;-46
2023/04/29 03:11:59;;;;;;;15.97;14.87;;;;;;;7.38;100.00;101355.25;5052442;28;20494;-47
2023/04/29 03:14:27;;;;;;;16.43;15.20;;;;;;;7.40;100.00;101358.56;5053373;28;20431;-47
2023/04/29 03:16:55;;;;;;;17.60;15.83;;;;;;;7.40;100.00;101354.09;5052745;28;20428;-45
2023/04/29 03:19:23;;;;;;;16.73;15.40;;;;;;;7.38;100.00;101364.00;5053194;28;20432;-46
2023/04/29 03:21:52;;;;;;;16.37;15.10;;;;;;;7.38;100.00;101363.22;5052810;28;20447;-47
2023/04/29 03:24:20;;;;;;;17.40;15.87;;;;;;;7.35;100.00;101369.63;5052859;28;20447;-45
2023/04/29 03:26:48;;;;;;;16.30;15.20;;;;;;;7.39;100.00;101367.50;5056403;28;21053;-47
2023/04/29 03:29:16;;;;;;;16.37;15.07;;;;;;;7.36;100.00;101373.97;5053019;28;20424;-46
2023/04/29 03:31:43;;;;;;;17.37;16.13;;;;;;;7.39;100.00;101362.19;5052247;28;20459;-50
2023/04/29 03:34:13;;;;;;;17.40;16.30;;;;;;;7.39;100.00;101373.66;5028956;28;20459;-48
2023/04/29 03:36:40;;;;;;;18.20;16.70;;;;;;;7.39;100.00;101365.69;5052696;28;20467;-44
2023/04/29 03:39:10;;;;;;;17.50;16.10;;;;;;;7.40;100.00;101382.44;5052688;28;20427;-47
2023/04/29 03:41:38;;;;;;;18.33;16.77;;;;;;;7.39;100.00;101380.75;5052476;28;20999;-44
2023/04/29 03:44:06;;;;;;;18.40;16.70;;;;;;;7.40;100.00;101379.78;5051965;28;20465;-44
2023/04/29 03:46:33;;;;;;;18.63;16.73;;;;;;;7.40;100.00;101377.97;5052227;28;20938;-45
2023/04/29 03:49:01;;;;;;;19.37;17.47;;;;;;;7.40;100.00;101385.09;5052404;28;20478;-44
2023/04/29 03:51:29;;;;;;;18.73;17.10;;;;;;;7.38;100.00;101387.09;5051279;28;20504;-47
2023/04/29 03:53:58;;;;;;;18.37;16.90;;;;;;;7.41;100.00;101387.56;5051996;28;20491;-46
2023/04/29 03:56:27;;;;;;;19.33;17.63;;;;;;;7.40;100.00;101387.75;5052342;28;20478;-47
2023/04/29 03:58:54;;;;;;;19.63;17.87;;;;;;;7.40;100.00;101395.72;5052180;28;20466;-44
2023/04/29 04:01:22;;;;;;;18.57;16.97;;;;;;;7.39;100.00;101384.25;5051890;28;20451;-47
2023/04/29 04:03:50;;;;;;;19.50;17.83;;;;;;;7.42;100.00;101399.03;5028797;28;20554;-45
2023/04/29 04:06:18;;;;;;;19.27;17.43;;;;;;;7.39;100.00;101404.66;5052334;28;20428;-45
2023/04/29 04:08:45;;;;;;;18.20;16.70;;;;;;;7.41;100.00;101398.19;5052383;28;20436;-45
2023/04/29 04:11:14;;;;;;;18.57;17.07;;;;;;;7.41;100.00;101408.78;5051833;28;20462;-46
2023/04/29 04:13:43;;;;;;;19.07;17.37;;;;;;;7.43;100.00;101409.50;5051378;28;20494;-46
2023/04/29 04:16:11;;;;;;;20.40;18.60;;;;;;;7.47;100.00;101408.16;5052009;28;20513;-47
2023/04/29 04:18:39;;;;;;;19.83;17.90;;;;;;;7.51;100.00;101413.97;5052265;28;20862;-50
2023/04/29 04:21:07;;;;;;;19.20;17.57;;;;;;;7.49;100.00;101415.97;5051769;28;20978;-49
2023/04/29 04:23:35;;;;;;;19.20;17.47;;;;;;;7.54;100.00;101421.63;5051114;28;20459;-49
2023/04/29 04:26:02;;;;;;;19.30;17.50;;;;;;;7.54;100.00;101421.63;5055235;28;20650;-47
2023/04/29 04:28:30;;;;;;;16.93;15.70;;;;;;;7.55;100.00;101423.31;5050784;28;20436;-47
2023/04/29 04:30:59;;;;;;;20.73;18.60;;;;;;;7.58;100.00;101425.63;5050656;28;20554;-52
2023/04/29 04:33:27;;;;;;;19.23;17.73;;;;;;;7.65;100.00;101440.75;5050385;28;20467;-44
2023/04/29 04:35:55;;;;;;;19.50;17.80;;;;;;;7.60;100.00;101435.09;5050904;28;20474;-46
2023/04/29 04:38:24;;;;;;;19.70;17.80;;;;;;;7.66;100.00;101439.75;5050868;28;21048;-46
2023/04/29 04:40:52;;;;;;;19.37;17.87;;;;;;;7.65;100.00;101440.75;5051358;28;20448;-50
2023/04/29 04:43:20;;;;;;;20.30;18.53;;;;;;;7.67;100.00;101440.59;5050434;28;20459;-45
2023/04/29 04:45:47;;;;;;;19.43;17.63;;;;;;;7.70;100.00;101442.94;5050738;28;20427;-48
2023/04/29 04:48:16;;;;;;;19.80;18.30;;;;;;;7.75;100.00;101444.09;5051009;28;20439;-45
2023/04/29 04:50:44;;;;;;;20.30;18.43;;;;;;;7.72;100.00;101454.22;5050733;28;20485;-49
2023/04/29 04:53:12;;;;;;;20.27;18.57;;;;;;;7.71;100.00;101458.69;5045135;28;20475;-46
2023/04/29 04:55:40;;;;;;;19.33;17.47;;;;;;;7.74;100.00;101457.53;5050050;28;20893;-45
2023/04/29 04:58:07;;;;;;;20.00;18.20;;;;;;;7.70;100.00;101459.69;5049901;28;20442;-46
2023/04/29 05:00:35;;;;;;;18.03;16.53;;;;;;;7.77;100.00;101457.19;5049919;28;20463;-47
2023/04/29 05:03:02;;;;;;;21.50;19.50;;;;;;;7.79;100.00;101465.88;5047035;28;20474;-44
2023/04/29 05:05:33;;;;;;;19.17;17.57;;;;;;;7.78;100.00;101470.34;5050132;28;20972;-46
2023/04/29 05:08:01;;;;;;;18.80;17.20;;;;;;;7.79;100.00;101476.47;5049368;28;21079;-45
2023/04/29 05:10:29;;;;;;;18.47;16.77;;;;;;;7.85;100.00;101469.69;5049780;28;20451;-45
2023/04/29 05:12:57;;;;;;;17.53;16.20;;;;;;;7.88;100.00;101469.38;5049462;28;20517;-47
2023/04/29 05:15:26;;;;;;;18.37;16.50;;;;;;;7.96;100.00;101470.22;5049661;28;20427;-48
2023/04/29 05:17:54;;;;;;;18.63;17.00;;;;;;;8.07;100.00;101471.72;5049573;28;20438;-44
2023/04/29 05:20:22;;;;;;;18.10;16.40;;;;;;;8.12;100.00;101472.09;5049740;28;20542;-48
2023/04/29 05:22:51;;;;;;;20.83;16.70;;;;;;;8.20;100.00;101470.28;5048399;28;20463;-49
2023/04/29 05:25:18;;;;;;;19.23;17.57;;;;;;;8.29;100.00;101474.66;5053013;28;20447;-49
2023/04/29 05:27:46;;;;;;;17.77;16.23;;;;;;;8.31;100.00;101472.66;5049185;28;20473;-48
2023/04/29 05:30:14;;;;;;;17.67;16.10;;;;;;;8.37;100.00;101472.97;5049331;28;20534;-45
2023/04/29 05:32:42;;;;;;;19.27;17.57;;;;;;;8.52;100.00;101472.16;5046662;28;20530;-44
2023/04/29 05:35:12;;;;;;;19.10;17.20;;;;;;;8.61;100.00;101487.13;5049681;28;20913;-46
2023/04/29 05:37:40;;;;;;;18.60;16.93;;;;;;;8.62;100.00;101487.97;5049304;28;20540;-45
2023/04/29 05:40:10;;;;;;;17.47;15.73;;;;;;;8.69;100.00;101479.16;5049515;28;20431;-45
2023/04/29 05:42:38;;;;;;;18.70;16.70;;;;;;;8.82;100.00;101489.28;5048649;28;20478;-46
2023/04/29 05:45:06;;;;;;;17.77;16.10;;;;;;;8.93;100.00;101486.28;5049452;28;20458;-44
2023/04/29 05:47:34;;;;;;;18.00;16.23;;;;;;;8.95;100.00;101494.09;5049604;28;20439;-45
2023/04/29 05:50:02;;;;;;;18.87;17.03;;;;;;;8.95;100.00;101497.59;5049635;28;20432;-47
2023/04/29 05:52:30;;;;;;;16.33;15.00;;;;;;;8.97;100.00;101502.75;5048633;28;20876;-49
2023/04/29 05:54:58;;;;;;;16.80;15.30;;;;;;;9.07;100.00;101498.91;5049423;28;20937;-45
2023/04/29 05:57:30;;;;;;;17.43;15.93;;;;;;;9.25;100.00;101504.03;5049386;28;20528;-47
2023/04/29 06:00:00;;;;;;;15.80;14.77;;;;;;;9.35;100.00;101512.66;5049291;28;20431;-46
2023/04/29 06:02:27;;;;;;;16.20;14.80;;;;;;;9.42;100.00;101505.66;5048943;28;20446;-46
2023/04/29 06:04:56;;;;;;;15.70;14.40;;;;;;;9.36;100.00;101514.31;5040028;28;20455;-47
2023/04/29 06:07:25;;;;;;;16.33;15.20;;;;;;;9.38;100.00;101518.47;5046894;28;21156;-47
2023/04/29 06:09:55;;;;;;;15.83;14.70;;;;;;;9.50;100.00;101515.47;5050233;28;20522;-45
2023/04/29 06:12:23;;;;;;;16.77;15.20;;;;;;;9.55;100.00;101523.78;5049810;28;20431;-49
2023/04/29 06:14:52;;;;;;;16.67;15.07;;;;;;;9.60;100.00;101521.41;5055722;28;20473;-44
2023/04/29 06:17:20;;;;;;;17.17;15.53;;;;;;;9.78;100.00;101522.03;5059401;28;20477;-45
2023/04/29 06:19:48;;;;;;;14.90;13.90;;;;;;;9.90;100.00;101523.31;5059869;28;20467;-43
2023/04/29 06:22:16;;;;;;;15.10;13.77;;;;;;;9.95;100.00;101529.78;5059308;28;20431;-45
2023/04/29 06:24:44;;;;;;;16.50;15.10;;;;;;;9.92;100.00;101529.28;5054668;28;20467;-43
2023/04/29 06:27:12;;;;;;;16.40;15.17;;;;;;;9.90;100.00;101531.31;5058214;28;20457;-45
2023/04/29 06:29:41;;;;;;;17.63;15.83;;;;;;;9.89;100.00;101533.13;5058510;28;20447;-44
2023/04/29 06:32:12;;;;;;;16.37;14.97;;;;;;;9.77;100.00;101536.34;5059083;28;20482;-43
2023/04/29 06:34:40;;;;;;;15.00;13.73;;;;;;;9.78;100.00;101535.34;5058541;28;20474;-47
2023/04/29 06:37:08;;;;;;;14.40;13.33;;;;;;;9.77;100.00;101546.97;5058639;28;21008;-44
2023/04/29 06:39:35;;;;;;;21.67;14.33;;;;;;;9.76;100.00;101535.53;5058353;28;20434;-50
2023/04/29 06:42:03;;;;;;;15.00;13.90;;;;;;;9.78;100.00;101544.16;5057531;28;20554;-46
2023/04/29 06:44:31;;;;;;;14.77;13.57;;;;;;;9.68;100.00;101548.84;5058779;28;20840;-44
2023/04/29 06:46:59;;;;;;;13.73;12.50;;;;;;;9.78;100.00;101540.66;5058959;28;20433;-47
2023/04/29 06:49:28;;;;;;;14.27;13.10;;;;;;;9.72;100.00;101547.53;5058165;28;20478;-47
2023/04/29 06:51:56;;;;;;;15.07;13.97;;;;;;;9.87;100.00;101551.13;5055246;28;20457;-44
2023/04/29 06:54:24;;;;;;;15.03;13.90;;;;;;;9.84;100.00;101553.31;5056316;28;20530;-45
2023/04/29 06:56:52;;;;;;;16.03;14.60;;;;;;;10.03;100.00;101555.56;5056579;28;20924;-46
2023/04/29 06:59:20;;;;;;;14.90;13.70;;;;;;;10.38;100.00;101556.91;5057258;28;20513;-48
2023/04/29 07:01:47;;;;;;;14.43;13.13;;;;;;;10.58;100.00;101560.78;5057469;28;20473;-48
2023/04/29 07:04:16;;;;;;;15.27;13.97;;;;;;;10.76;100.00;101550.66;5044960;28;20563;-43
2023/04/29 07:06:45;;;;;;;14.27;13.07;;;;;;;10.85;100.00;101546.09;5058111;28;20477;-44
2023/04/29 07:09:14;;;;;;;14.27;13.00;;;;;;;10.96;100.00;101548.34;5057691;28;20435;-51
2023/04/29 07:11:42;;;;;;;14.83;12.53;;;;;;;11.20;100.00;101556.13;5057195;28;20469;-47
2023/04/29 07:14:09;;;;;;;14.43;13.43;;;;;;;11.23;100.00;101554.97;5057108;28;20782;-49
2023/04/29 07:16:37;;;;;;;13.13;12.03;;;;;;;11.57;100.00;101553.44;5058185;28;20974;-43
2023/04/29 07:19:05;;;;;;;12.57;11.67;;;;;;;11.79;100.00;101549.06;5058677;28;20529;-43
2023/04/29 07:21:32;;;;;;;12.93;11.80;;;;;;;11.99;100.00;101557.31;5057738;28;20521;-48
2023/04/29 07:24:03;;;;;;;13.20;12.10;;;;;;;12.06;100.00;101556.41;5058351;28;20577;-46
2023/04/29 07:26:31;;;;;;;13.40;12.20;;;;;;;12.20;100.00;101552.88;5060167;28;20467;-43
2023/04/29 07:28:59;;;;;;;13.03;11.80;;;;;;;12.29;100.00;101550.91;5054505;28;20451;-45
2023/04/29 07:31:27;;;;;;;13.87;12.67;;;;;;;12.44;100.00;101553.56;5054650;28;20857;-46
2023/04/29 07:33:55;;;;;;;13.23;11.90;;;;;;;12.54;100.00;101551.41;5055064;28;20434;-44
2023/04/29 07:36:23;;;;;;;12.93;11.60;;;;;;;12.50;100.00;101564.31;5053234;28;20463;-43
2023/04/29 07:38:51;;;;;;;13.70;12.50;;;;;;;12.40;100.00;101570.97;5053622;28;20562;-48
2023/04/29 07:41:21;;;;;;;13.70;12.60;;;;;;;12.37;100.00;101572.19;5054241;28;20451;-44
2023/04/29 07:43:48;;;;;;;13.70;11.70;;;;;;;12.28;100.00;101575.16;5054199;28;20812;-46
2023/04/29 07:46:17;;;;;;;13.90;11.83;;;;;;;12.53;100.00;101574.66;5053558;28;20467;-51
2023/04/29 07:48:45;;;;;;;12.80;11.60;;;;;;;12.67;100.00;101567.59;5053876;28;20857;-47
2023/04/29 07:51:13;;;;;;;13.60;12.40;;;;;;;12.66;100.00;101580.13;5054108;28;20462;-51
2023/04/29 07:53:42;;;;;;;14.00;12.60;;;;;;;12.68;100.00;101582.63;5052879;28;20432;-44
2023/04/29 07:56:10;;;;;;;14.30;12.90;;;;;;;12.45;100.00;101574.78;5054165;28;20874;-47
2023/04/29 07:58:39;;;;;;;12.97;11.87;;;;;;;12.57;100.00;101589.28;5054065;28;20474;-46
2023/04/29 08:01:07;;;;;;;13.87;12.47;;;;;;;12.57;97.96;101589.28;5054327;28;20459;-44
2023/04/29 08:03:35;;;;;;;12.73;11.63;;;;;;;12.76;100.00;101583.34;5053826;28;20439;-49
2023/04/29 08:06:07;;;;;;;13.80;12.40;;;;;;;12.86;99.78;101585.69;5054323;28;20460;-47
2023/04/29 08:08:35;;;;;;;13.93;12.60;;;;;;;13.10;99.99;101587.19;5054720;28;20419;-49
2023/04/29 08:11:03;;;;;;;12.97;11.87;;;;;;;13.19;90.72;101586.88;5053512;28;20447;-48
2023/04/29 08:13:31;;;;;;;12.83;11.83;;;;;;;13.22;90.48;101583.81;5052441;28;20507;-45
2023/04/29 08:16:00;;;;;;;13.10;11.50;;;;;;;12.88;91.23;101582.81;5054267;28;20727;-45
2023/04/29 08:18:28;;;;;;;12.60;11.43;;;;;;;12.90;95.73;101597.69;5049660;28;20561;-47
2023/04/29 08:20:55;;;;;;;12.13;10.93;;;;;;;12.78;95.90;101600.03;5053691;28;20542;-48
2023/04/29 08:23:23;;;;;;;12.50;11.27;;;;;;;12.93;95.53;101591.13;5053778;28;20438;-46
2023/04/29 08:25:52;;;;;;;13.30;12.00;;;;;;;13.24;91.12;101592.47;5057243;28;21027;-48
2023/04/29 08:28:20;;;;;;;11.67;10.67;;;;;;;13.13;88.25;101605.56;5052371;28;20462;-46
2023/04/29 08:30:48;;;;;;;13.47;11.80;;;;;;;13.13;89.73;101608.22;5054424;28;20459;-46
2023/04/29 08:33:17;;;;;;;11.00;10.10;;;;;;;13.03;90.86;101596.97;5054586;28;20442;-45
2023/04/29 08:35:45;;;;;;;12.63;11.43;;;;;;;13.17;89.62;101604.16;5052658;28;20455;-43
2023/04/29 08:38:14;;;;;;;12.80;11.63;;;;;;;13.24;93.30;101605.88;5054868;28;20562;-45
2023/04/29 08:40:44;;;;;;;11.93;10.93;;;;;;;13.31;83.30;101613.97;5054711;28;20463;-46
2023/04/29 08:43:14;;;;;;;12.70;11.43;;;;;;;13.37;84.79;101618.53;5055725;28;20431;-44
2023/04/29 08:45:42;;;;;;;12.37;11.10;;;;;;;13.42;87.36;101621.47;5054644;28;20467;-46
2023/04/29 08:48:11;;;;;;;12.30;11.27;;;;;;;13.50;90.92;101620.50;5054752;28;20502;-46
2023/04/29 08:50:41;;;;;;;12.80;11.40;;;;;;;13.52;95.64;101607.75;5054152;28;20551;-46
2023/04/29 08:53:10;;;;;;;13.27;12.03;;;;;;;13.69;92.38;101619.81;5055111;28;20450;-47
2023/04/29 08:55:42;;;;;;;12.40;11.30;;;;;;;13.83;91.35;101610.81;5055192;28;20470;-43
2023/04/29 08:58:11;;;;;;;14.93;11.70;;;;;;;13.78;92.64;101627.50;5052202;28;20535;-44
2023/04/29 09:00:40;;;;;;;11.77;10.77;;;;;;;13.58;90.21;101623.88;5056025;28;20447;-50
2023/04/29 09:03:14;;;;;;;11.97;10.90;;;;;;;13.70;83.41;101626.84;5055714;28;20431;-43
2023/04/29 09:05:48;;;;;;;12.30;11.30;;;;;;;13.77;88.12;101620.50;5051479;28;20581;-45
2023/04/29 09:08:16;;;;;;;12.27;11.17;;;;;;;13.52;83.45;101619.28;5055755;28;20681;-45
2023/04/29 09:10:44;;;;;;;11.87;10.87;;;;;;;13.80;87.44;101622.78;5054630;28;20459;-44
2023/04/29 09:13:24;;;;;;;11.80;10.60;;;;;;;14.03;86.97;101619.84;5054703;28;20821;-47
2023/04/29 09:15:52;;;;;;;12.17;10.63;;;;;;;14.21;83.32;101625.50;5055612;28;20461;-43
2023/04/29 09:18:54;;;;;;;11.60;10.50;;;;;;;14.66;87.25;101617.88;5054311;28;20471;-47
2023/04/29 09:21:24;;;;;;;10.40;9.60;;;;;;;14.51;84.33;101619.88;4992969;28;20457;-46
2023/04/29 09:23:54;;;;;;;10.27;8.97;;;;;;;14.50;73.07;101621.75;4977190;28;20435;-48
2023/04/29 09:26:23;;;;;;;9.80;8.90;;;;;;;14.34;74.59;101622.91;5022811;28;20470;-44
2023/04/29 09:29:07;;;;;;;10.37;9.27;;;;;;;14.44;70.55;101619.84;5054596;28;20891;-46
2023/04/29 09:31:36;;;;;;;9.80;8.70;;;;;;;14.35;69.79;101621.06;5054818;28;20537;-47
2023/04/29 09:34:03;;;;;;;9.50;8.60;;;;;;;14.42;74.88;101623.78;5055150;28;20464;-46
2023/04/29 09:36:57;;;;;;;9.47;8.60;;;;;;;14.27;72.18;101623.88;5053547;28;20471;-50
2023/04/29 09:39:25;;;;;;;8.80;8.10;;;;;;;14.33;71.26;101631.16;5050854;28;20482;-45
2023/04/29 09:42:01;;;;;;;8.53;7.83;;;;;;;14.25;68.19;101626.75;5054099;28;20545;-43
2023/04/29 09:44:31;;;;;;;10.07;9.03;;;;;;;14.27;72.70;101638.13;5054746;28;20451;-46
2023/04/29 09:47:02;;;;;;;11.10;10.03;;;;;;;14.46;69.75;101631.22;5054952;28;20430;-50
2023/04/29 09:49:34;;;;;;;8.53;7.60;;;;;;;14.22;68.83;101637.03;5053559;28;20442;-47
2023/04/29 09:52:05;;;;;;;8.83;8.13;;;;;;;14.32;73.91;101634.84;5058479;28;20508;-44
2023/04/29 09:54:35;;;;;;;9.00;8.13;;;;;;;14.44;71.57;101633.28;5058230;28;20807;-46
2023/04/29 09:57:04;;;;;;;9.50;8.60;;;;;;;14.88;76.69;101630.94;5059142;28;20427;-49
2023/04/29 09:59:34;;;;;;;10.40;9.03;;;;;;;14.56;73.88;101641.56;5058756;28;20478;-49
2023/04/29 10:02:08;;;;;;;10.70;9.73;;;;;;;14.70;72.33;101644.09;5058527;28;20451;-48
2023/04/29 10:04:40;;;;;;;10.87;9.77;;;;;;;14.85;72.70;101631.34;5058920;28;20455;-43
2023/04/29 10:07:09;;;;;;;9.53;8.47;;;;;;;14.84;72.13;101634.25;5059492;28;20478;-43
2023/04/29 10:09:39;;;;;;;9.87;9.07;;;;;;;14.82;75.97;101641.66;5058241;28;20431;-49
2023/04/29 10:12:08;;;;;;;10.07;9.27;;;;;;;14.65;75.53;101641.22;5058356;28;20443;-44
2023/04/29 10:14:43;;;;;;;11.33;10.27;;;;;;;14.65;77.13;101645.75;5059245;28;20462;-43
2023/04/29 10:17:16;;;;;;;9.80;8.90;;;;;;;14.68;77.57;101638.13;5059023;28;20435;-47
2023/04/29 10:19:52;;;;;;;10.80;9.90;;;;;;;14.92;81.97;101648.31;5057234;28;20514;-46
2023/04/29 10:22:29;;;;;;;12.47;10.20;;;;;;;15.07;83.46;101644.63;5058178;28;20442;-44
2023/04/29 10:24:59;;;;;;;10.03;9.00;;;;;;;14.29;89.38;101645.97;5053001;28;20421;-46
2023/04/29 10:27:27;;;;;;;10.67;9.60;;;;;;;14.28;91.52;101647.81;5057610;28;20476;-44
2023/04/29 10:29:58;;;;;;;9.30;8.40;;;;;;;14.04;90.78;101655.50;5057794;28;20796;-46
2023/04/29 10:32:29;;;;;;;9.10;8.30;;;;;;;14.08;79.72;101656.78;5057022;28;20462;-45
2023/04/29 10:35:12;;;;;;;9.77;8.87;;;;;;;14.39;78.56;101655.31;5055942;28;20876;-45
2023/04/29 10:37:42;;;;;;;9.50;8.70;;;;;;;14.13;79.22;101652.47;5058839;28;20840;-45
2023/04/29 10:40:14;;;;;;;9.50;8.60;;;;;;;14.04;73.11;101659.03;5057358;28;20518;-46
2023/04/29 10:42:45;;;;;;;8.20;7.43;;;;;;;13.90;76.25;101662.66;5058620;28;20497;-44
2023/04/29 10:45:20;;;;;;;8.90;8.10;;;;;;;14.17;80.11;101666.34;5058057;28;20451;-43
2023/04/29 10:48:12;;;;;;;8.57;7.77;;;;;;;14.21;76.93;101670.28;5057613;28;20430;-44
2023/04/29 10:50:56;;;;;;;7.30;6.50;;;;;;;14.20;69.92;101663.25;5056942;28;20469;-47
2023/04/29 10:53:25;;;;;;;6.67;6.00;;;;;;;13.74;63.39;101666.44;5054246;28;20461;-45
2023/04/29 10:55:54;;;;;;;6.00;5.70;;;;;;;13.63;63.39;101666.16;5055424;28;20467;-45
2023/04/29 10:58:36;;;;;;;5.10;4.80;;;;;;;13.52;66.00;101672.06;5056342;28;20439;-47
2023/04/29 11:01:06;;;;;;;6.10;5.60;;;;;;;13.84;68.07;101666.94;5055530;28;20485;-44
2023/04/29 11:04:00;;;;;;;5.50;5.00;;;;;;;13.86;68.07;101669.41;5056191;28;20436;-47
2023/04/29 11:06:40;;;;;;;6.10;5.80;;;;;;;13.58;69.28;101666.75;5055077;28;20469;-51
2023/04/29 11:09:13;;;;;;;6.27;5.80;;;;;;;13.57;71.00;101661.56;5053163;28;20446;-43
2023/04/29 11:11:46;;;;;;;5.43;4.93;;;;;;;13.56;68.82;101665.28;5046020;28;20459;-49
2023/04/29 11:14:15;;;;;;;5.97;5.67;;;;;;;13.48;71.02;101666.25;5054758;28;20462;-44
2023/04/29 11:16:52;;;;;;;6.17;5.80;;;;;;;13.83;67.79;101667.13;5053428;28;20459;-48
2023/04/29 11:19:20;;;;;;;6.63;6.00;;;;;;;14.07;70.12;101674.72;5052825;28;20477;-46
2023/04/29 11:21:48;;;;;;;6.53;5.87;;;;;;;14.19;67.85;101656.22;5053078;28;20462;-45